createdAt,value
2017-11-14T00:00:30.217Z,2.60
2017-11-14T00:02:57.861Z,2.60
2017-11-14T00:05:25.574Z,2.60
2017-11-14T00:10:32.811Z,2.60
2017-11-14T00:13:00.473Z,2.60
2017-11-14T00:15:28.640Z,2.70
2017-11-14T00:17:56.396Z,2.70
2017-11-14T00:20:24.035Z,2.70
2017-11-14T00:22:51.682Z,2.70
2017-11-14T00:25:19.410Z,2.70
2017-11-14T00:27:47.076Z,2.80
2017-11-14T00:30:17.445Z,2.80
2017-11-14T00:32:44.090Z,2.80
2017-11-14T00:35:12.996Z,2.80
2017-11-14T00:37:41.164Z,2.70
2017-11-14T00:40:09.332Z,2.60
2017-11-14T00:42:37.508Z,2.50
2017-11-14T00:45:06.435Z,2.50
2017-11-14T00:47:34.140Z,2.50
2017-11-14T00:50:01.782Z,2.50
2017-11-14T00:52:30.158Z,2.50
2017-11-14T00:54:58.269Z,2.50
2017-11-14T00:57:25.903Z,2.40
2017-11-14T01:02:22.492Z,2.30
2017-11-14T01:04:51.151Z,2.30
2017-11-14T01:07:18.797Z,2.40
2017-11-14T01:09:46.528Z,2.30
2017-11-14T01:12:14.144Z,2.40
2017-11-14T01:14:42.314Z,2.30
2017-11-14T01:19:38.148Z,2.30
2017-11-14T01:22:05.800Z,2.20
2017-11-14T01:24:34.334Z,2.10
2017-11-14T01:27:02.814Z,2.20
2017-11-14T01:29:30.452Z,2.20
2017-11-14T01:31:58.160Z,2.20
2017-11-14T01:37:05.251Z,2.30
2017-11-14T01:39:32.871Z,2.30
2017-11-14T01:42:01.030Z,2.30
2017-11-14T01:44:29.137Z,2.40
2017-11-14T01:46:56.794Z,2.50
2017-11-14T01:49:24.437Z,2.50
2017-11-14T01:51:52.153Z,2.50
2017-11-14T01:54:19.812Z,2.50
2017-11-14T01:56:47.424Z,2.50
2017-11-14T01:59:15.949Z,2.40
2017-11-14T02:04:11.496Z,2.40
2017-11-14T02:06:39.224Z,2.40
2017-11-14T02:09:06.864Z,2.40
2017-11-14T02:11:34.508Z,2.40
2017-11-14T02:14:02.186Z,2.30
2017-11-14T02:16:29.851Z,2.30
2017-11-14T02:18:57.507Z,2.30
2017-11-14T02:21:25.634Z,2.30
2017-11-14T02:23:54.231Z,2.20
2017-11-14T02:26:22.861Z,2.30
2017-11-14T02:28:50.572Z,2.30
2017-11-14T02:31:19.069Z,2.30
2017-11-14T02:33:47.457Z,2.30
2017-11-14T02:36:15.948Z,2.30
2017-11-14T02:38:43.601Z,2.20
2017-11-14T02:41:11.841Z,2.10
2017-11-14T02:43:40.407Z,2.10
2017-11-14T02:46:08.050Z,2.00
2017-11-14T02:51:04.298Z,2.00
2017-11-14T02:53:31.940Z,2.00
2017-11-14T02:56:00.404Z,2.00
2017-11-14T02:58:28.106Z,2.00
2017-11-14T03:06:03.504Z,1.90
2017-11-14T03:08:31.138Z,1.70
2017-11-14T03:13:26.488Z,1.80
2017-11-14T03:15:55.071Z,1.70
2017-11-14T03:18:22.721Z,1.70
2017-11-14T03:20:50.423Z,1.70
2017-11-14T03:23:18.795Z,1.70
2017-11-14T03:25:46.437Z,1.60
2017-11-14T03:28:14.151Z,1.40
2017-11-14T03:33:09.419Z,1.30
2017-11-14T03:35:37.129Z,1.30
2017-11-14T03:38:04.772Z,1.40
2017-11-14T03:40:32.396Z,1.40
2017-11-14T03:43:00.954Z,1.30
2017-11-14T03:45:28.597Z,1.30
2017-11-14T03:47:56.240Z,1.20
2017-11-14T03:53:03.057Z,1.10
2017-11-14T03:55:30.764Z,1.10
2017-11-14T03:57:58.402Z,1.30
2017-11-14T04:00:26.043Z,1.30
2017-11-14T04:02:53.737Z,1.30
2017-11-14T04:05:21.391Z,1.40
2017-11-14T04:07:49.036Z,1.30
2017-11-14T04:10:16.730Z,1.30
2017-11-14T04:12:44.878Z,1.30
2017-11-14T04:15:13.316Z,1.30
2017-11-14T04:17:41.063Z,1.40
2017-11-14T04:20:08.718Z,1.30
2017-11-14T04:22:36.371Z,1.30
2017-11-14T04:25:04.084Z,1.30
2017-11-14T04:27:32.494Z,1.10
2017-11-14T04:30:00.157Z,1.10
2017-11-14T04:32:27.869Z,1.20
2017-11-14T04:34:55.992Z,1.30
2017-11-14T04:37:23.636Z,1.20
2017-11-14T04:39:51.793Z,1.30
2017-11-14T04:42:19.456Z,1.30
2017-11-14T04:44:47.962Z,1.20
2017-11-14T04:47:15.698Z,1.30
2017-11-14T04:49:43.348Z,1.40
2017-11-14T04:52:11.335Z,1.40
2017-11-14T04:54:39.496Z,1.20
2017-11-14T04:57:07.175Z,1.10
2017-11-14T04:59:36.247Z,1.20
2017-11-14T05:02:04.092Z,1.20
2017-11-14T05:04:31.726Z,1.30
2017-11-14T05:06:59.861Z,1.30
2017-11-14T05:09:27.584Z,1.40
2017-11-14T05:11:56.218Z,1.50
2017-11-14T05:14:24.373Z,1.60
2017-11-14T05:16:52.148Z,1.70
2017-11-14T05:21:58.975Z,1.60
2017-11-14T05:24:26.626Z,1.40
2017-11-14T05:26:54.265Z,1.40
2017-11-14T05:29:22.921Z,1.50
2017-11-14T05:31:50.561Z,1.60
2017-11-14T05:36:45.949Z,1.60
2017-11-14T05:39:13.600Z,1.60
2017-11-14T05:41:41.249Z,1.60
2017-11-14T05:44:08.981Z,1.40
2017-11-14T05:46:36.639Z,1.20
2017-11-14T05:49:04.290Z,1.10
2017-11-14T05:54:00.983Z,1.20
2017-11-14T05:56:28.638Z,1.10
2017-11-14T05:58:56.803Z,1.00
2017-11-14T06:01:24.476Z,1.00
2017-11-14T06:03:52.127Z,0.90
2017-11-14T06:06:19.832Z,0.90
2017-11-14T06:08:47.495Z,1.00
2017-11-14T06:11:15.967Z,1.00
2017-11-14T06:13:43.698Z,0.90
2017-11-14T06:16:11.422Z,1.50
2017-11-14T06:18:39.033Z,1.40
2017-11-14T06:21:06.763Z,1.40
2017-11-14T06:23:34.406Z,1.40
2017-11-14T06:26:02.050Z,1.40
2017-11-14T06:28:29.792Z,1.20
2017-11-14T06:30:57.413Z,1.10
2017-11-14T06:33:25.879Z,0.90
2017-11-14T06:35:54.509Z,0.80
2017-11-14T06:38:22.134Z,0.90
2017-11-14T06:43:28.960Z,0.90
2017-11-14T06:45:56.615Z,1.10
2017-11-14T06:48:24.867Z,1.50
2017-11-14T06:50:53.384Z,1.60
2017-11-14T06:53:21.010Z,1.70
2017-11-14T06:55:49.505Z,1.70
2017-11-14T06:58:17.173Z,1.60
2017-11-14T07:00:45.059Z,1.60
2017-11-14T07:03:12.704Z,1.50
2017-11-14T07:05:40.409Z,1.40
2017-11-14T07:08:08.048Z,1.30
2017-11-14T07:10:35.931Z,1.10
2017-11-14T07:13:03.627Z,1.10
2017-11-14T07:15:31.262Z,1.20
2017-11-14T07:17:59.857Z,1.20
2017-11-14T07:20:27.557Z,1.20
2017-11-14T07:22:55.199Z,1.30
2017-11-14T07:25:22.828Z,1.40
2017-11-14T07:27:51.496Z,1.60
2017-11-14T07:30:19.121Z,1.50
2017-11-14T07:32:46.747Z,1.50
2017-11-14T07:35:14.469Z,1.50
2017-11-14T07:37:42.957Z,1.60
2017-11-14T07:40:10.578Z,1.60
2017-11-14T07:42:39.228Z,1.40
2017-11-14T07:45:06.857Z,1.40
2017-11-14T07:47:34.525Z,1.40
2017-11-14T07:50:03.115Z,1.50
2017-11-14T07:52:30.745Z,1.50
2017-11-14T07:54:59.111Z,1.60
2017-11-14T07:57:26.792Z,1.60
2017-11-14T07:59:55.344Z,1.60
2017-11-14T08:02:22.980Z,1.70
2017-11-14T08:15:11.385Z,1.60
2017-11-14T08:17:39.869Z,1.60
2017-11-14T08:20:08.406Z,1.80
2017-11-14T08:22:37.062Z,1.90
2017-11-14T08:25:05.532Z,1.90
2017-11-14T08:27:33.563Z,2.00
2017-11-14T08:32:30.707Z,2.40
2017-11-14T08:37:26.075Z,2.60
2017-11-14T08:39:53.720Z,2.60
2017-11-14T08:42:21.360Z,2.70
2017-11-14T08:44:49.063Z,2.90
2017-11-14T08:47:17.579Z,3.00
2017-11-14T08:49:46.161Z,3.40
2017-11-14T08:52:14.858Z,4.00
2017-11-14T08:54:42.469Z,4.40
2017-11-14T08:57:10.918Z,4.90
2017-11-14T08:59:38.610Z,5.00
2017-11-14T09:02:07.197Z,4.60
2017-11-14T09:04:34.844Z,5.20
2017-11-14T09:07:03.492Z,5.60
2017-11-14T09:09:31.129Z,5.90
2017-11-14T09:11:58.772Z,5.90
2017-11-14T09:14:27.408Z,5.90
2017-11-14T09:16:55.038Z,5.70
2017-11-14T09:19:22.672Z,4.30
2017-11-14T09:21:50.434Z,3.70
2017-11-14T09:24:18.070Z,3.80
2017-11-14T09:26:45.710Z,4.10
2017-11-14T09:29:13.679Z,4.00
2017-11-14T09:31:41.308Z,4.00
2017-11-14T09:34:08.943Z,4.40
2017-11-14T09:36:36.657Z,3.90
2017-11-14T09:41:43.438Z,5.10
2017-11-14T09:46:40.516Z,6.10
2017-11-14T09:49:09.132Z,4.80
2017-11-14T09:51:36.769Z,4.70
2017-11-14T09:54:04.395Z,5.60
2017-11-14T09:58:59.709Z,5.00
2017-11-14T10:01:27.345Z,4.90
2017-11-14T10:03:55.873Z,4.90
2017-11-14T10:06:25.307Z,4.50
2017-11-14T10:08:52.941Z,4.40
2017-11-14T10:11:20.634Z,4.00
2017-11-14T10:13:48.261Z,4.00
2017-11-14T10:18:47.683Z,4.20
2017-11-14T10:21:15.312Z,4.40
2017-11-14T10:23:42.937Z,4.10
2017-11-14T10:26:10.647Z,4.40
2017-11-14T10:28:38.269Z,4.40
2017-11-14T10:31:06.766Z,4.30
2017-11-14T10:33:34.446Z,3.80
2017-11-14T10:38:30.656Z,4.00
2017-11-14T10:40:58.354Z,4.00
2017-11-14T10:43:26.004Z,4.20
2017-11-14T10:45:53.636Z,4.20
2017-11-14T10:48:21.330Z,3.80
2017-11-14T10:53:17.575Z,3.60
2017-11-14T10:55:45.825Z,3.60
2017-11-14T10:58:13.398Z,3.60
2017-11-14T11:00:41.061Z,3.70
2017-11-14T11:08:17.599Z,3.80
2017-11-14T11:10:45.250Z,4.00
2017-11-14T11:13:13.836Z,4.00
2017-11-14T11:15:41.547Z,4.00
2017-11-14T11:18:09.174Z,4.50
2017-11-14T11:20:36.809Z,4.60
2017-11-14T11:23:04.528Z,4.70
2017-11-14T11:25:32.154Z,4.70
2017-11-14T11:27:59.794Z,4.90
2017-11-14T11:30:27.491Z,5.10
2017-11-14T11:32:55.131Z,5.10
2017-11-14T11:35:23.724Z,5.20
2017-11-14T11:37:51.428Z,5.30
2017-11-14T11:40:19.061Z,5.20
2017-11-14T11:42:46.713Z,5.10
2017-11-14T11:45:14.421Z,5.20
2017-11-14T11:47:42.059Z,5.00
2017-11-14T11:50:09.677Z,4.40
2017-11-14T11:52:37.394Z,4.70
2017-11-14T11:55:05.018Z,5.10
2017-11-14T11:57:32.648Z,5.20
2017-11-14T12:00:00.346Z,5.40
2017-11-14T12:02:27.981Z,5.50
2017-11-14T12:04:55.601Z,5.40
2017-11-14T12:07:23.286Z,4.90
2017-11-14T12:09:50.920Z,5.60
2017-11-14T12:12:19.496Z,5.70
2017-11-14T12:14:47.205Z,6.10
2017-11-14T12:17:14.839Z,5.80
2017-11-14T12:19:42.468Z,6.10
2017-11-14T12:22:10.174Z,6.00
2017-11-14T12:24:37.805Z,5.90
2017-11-14T12:27:05.449Z,5.60
2017-11-14T12:29:33.147Z,5.30
2017-11-14T12:32:00.786Z,5.30
2017-11-14T12:37:07.602Z,5.20
2017-11-14T12:39:35.258Z,5.80
2017-11-14T12:42:02.890Z,6.10
2017-11-14T12:44:30.577Z,5.80
2017-11-14T12:46:58.208Z,5.40
2017-11-14T12:51:53.519Z,5.00
2017-11-14T12:54:21.139Z,5.50
2017-11-14T12:56:48.760Z,5.20
2017-11-14T12:59:16.805Z,5.60
2017-11-14T13:01:44.384Z,5.90
2017-11-14T13:04:12.015Z,6.10
2017-11-14T13:06:39.715Z,5.70
2017-11-14T13:09:08.814Z,5.40
2017-11-14T13:11:36.460Z,5.30
2017-11-14T13:16:32.761Z,5.20
2017-11-14T13:19:00.392Z,5.70
2017-11-14T13:21:28.105Z,5.80
2017-11-14T13:23:55.749Z,6.40
2017-11-14T13:26:23.966Z,6.80
2017-11-14T13:28:51.644Z,6.90
2017-11-14T13:31:19.285Z,6.90
2017-11-14T13:33:46.905Z,7.20
2017-11-14T13:36:14.599Z,7.20
2017-11-14T13:38:42.234Z,7.40
2017-11-14T13:41:09.850Z,7.00
2017-11-14T13:43:37.527Z,6.40
2017-11-14T13:46:05.153Z,6.80
2017-11-14T13:48:32.781Z,6.70
2017-11-14T13:51:01.288Z,7.30
2017-11-14T13:53:28.918Z,7.70
2017-11-14T13:55:56.532Z,7.80
2017-11-14T13:58:24.263Z,7.90
2017-11-14T14:05:58.647Z,7.20
2017-11-14T14:08:26.282Z,6.90
2017-11-14T14:10:54.729Z,7.50
2017-11-14T14:13:22.421Z,7.90
2017-11-14T14:15:50.053Z,8.30
2017-11-14T14:18:17.686Z,8.20
2017-11-14T14:20:45.838Z,8.30
2017-11-14T14:23:13.485Z,8.40
2017-11-14T14:25:41.118Z,8.10
2017-11-14T14:28:08.800Z,8.00
2017-11-14T14:30:36.426Z,7.70
2017-11-14T14:33:04.917Z,7.90
2017-11-14T14:38:00.879Z,7.60
2017-11-14T14:40:29.486Z,7.60
2017-11-14T14:42:57.172Z,7.70
2017-11-14T14:45:24.794Z,7.70
2017-11-14T14:47:53.373Z,7.10
2017-11-14T14:50:21.222Z,7.30
2017-11-14T14:52:48.847Z,7.30
2017-11-14T14:55:16.465Z,7.10
2017-11-14T14:57:44.151Z,6.90
2017-11-14T15:00:11.773Z,7.00
2017-11-14T15:02:40.374Z,6.90
2017-11-14T15:05:08.948Z,6.80
2017-11-14T15:07:37.557Z,6.70
2017-11-14T15:10:06.157Z,6.40
2017-11-14T15:12:33.865Z,6.30
2017-11-14T15:15:01.497Z,6.20
2017-11-14T15:19:57.682Z,6.10
2017-11-14T15:22:25.319Z,6.00
2017-11-14T15:24:52.940Z,6.00
2017-11-14T15:27:21.406Z,5.90
2017-11-14T15:29:49.848Z,5.70
2017-11-14T15:34:57.572Z,5.20
2017-11-14T15:37:25.205Z,5.20
2017-11-14T15:39:53.681Z,5.00
2017-11-14T15:42:21.391Z,4.80
2017-11-14T15:44:49.962Z,4.80
2017-11-14T15:47:17.607Z,4.80
2017-11-14T15:49:45.288Z,4.70
2017-11-14T15:52:13.873Z,4.80
2017-11-14T15:54:41.505Z,4.90
2017-11-14T15:57:10.080Z,4.80
2017-11-14T15:59:37.719Z,4.80
2017-11-14T16:02:05.346Z,4.80
2017-11-14T16:04:33.032Z,4.80
2017-11-14T16:09:28.314Z,4.60
2017-11-14T16:11:56.010Z,4.60
2017-11-14T16:16:52.146Z,4.50
2017-11-14T16:19:20.784Z,4.50
2017-11-14T16:21:49.364Z,4.50
2017-11-14T16:24:17.952Z,4.50
2017-11-14T16:26:45.645Z,4.40
2017-11-14T16:29:13.275Z,4.50
2017-11-14T16:31:40.899Z,4.50
2017-11-14T16:34:09.555Z,4.30
2017-11-14T16:36:37.181Z,4.10
2017-11-14T16:39:04.825Z,4.20
2017-11-14T16:41:32.535Z,4.30
2017-11-14T16:44:00.163Z,4.40
2017-11-14T16:46:28.613Z,4.30
2017-11-14T16:48:56.297Z,4.30
2017-11-14T16:51:24.874Z,4.20
2017-11-14T16:53:52.513Z,4.10
2017-11-14T16:56:20.231Z,4.20
2017-11-14T16:58:47.867Z,4.10
2017-11-14T17:03:55.390Z,4.00
2017-11-14T17:06:23.022Z,4.00
2017-11-14T17:08:50.651Z,3.90
2017-11-14T17:11:18.338Z,3.90
2017-11-14T17:13:46.696Z,3.90
2017-11-14T17:16:15.218Z,4.00
2017-11-14T17:18:44.711Z,3.80
2017-11-14T17:21:12.358Z,3.80
2017-11-14T17:23:40.958Z,3.50
2017-11-14T17:26:08.682Z,3.60
2017-11-14T17:28:36.317Z,3.50
2017-11-14T17:33:32.514Z,3.20
2017-11-14T17:38:32.850Z,3.30
2017-11-14T17:41:01.464Z,3.20
2017-11-14T17:43:29.682Z,3.20
2017-11-14T17:45:57.368Z,3.20
2017-11-14T17:48:25.841Z,3.30
2017-11-14T17:53:32.441Z,3.30
2017-11-14T17:56:00.117Z,3.40
2017-11-14T17:58:27.769Z,3.40
2017-11-14T18:00:56.737Z,3.30
2017-11-14T18:03:24.285Z,3.40
2017-11-14T18:05:52.750Z,3.40
2017-11-14T18:08:22.689Z,3.30
2017-11-14T18:10:51.052Z,3.30
2017-11-14T18:13:24.411Z,3.40
2017-11-14T18:16:00.393Z,3.30
2017-11-14T18:18:28.149Z,3.30
2017-11-14T18:20:56.633Z,3.30
2017-11-14T18:23:25.154Z,3.30
2017-11-14T18:25:52.872Z,3.30
2017-11-14T18:28:20.849Z,3.40
2017-11-14T18:30:48.479Z,3.20
2017-11-14T18:35:43.879Z,3.00
2017-11-14T18:38:12.336Z,2.80
2017-11-14T18:40:40.839Z,2.80
2017-11-14T18:43:08.511Z,2.80
2017-11-14T18:45:36.136Z,2.70
2017-11-14T18:48:03.869Z,2.70
2017-11-14T18:53:12.167Z,2.60
2017-11-14T18:55:39.745Z,2.60
2017-11-14T18:58:08.321Z,2.50
2017-11-14T19:06:23.053Z,2.80
2017-11-14T19:08:50.794Z,2.60
2017-11-14T19:11:18.964Z,2.60
2017-11-14T19:13:46.663Z,2.60
2017-11-14T19:16:14.338Z,2.70
2017-11-14T19:18:42.121Z,2.80
2017-11-14T19:21:09.943Z,2.80
2017-11-14T19:23:37.542Z,2.80
2017-11-14T19:26:05.197Z,2.60
2017-11-14T19:28:33.719Z,2.60
2017-11-14T19:31:01.337Z,2.50
2017-11-14T19:33:29.153Z,2.30
2017-11-14T19:35:56.779Z,2.30
2017-11-14T19:38:24.412Z,2.20
2017-11-14T19:40:52.882Z,2.20
2017-11-14T19:43:20.586Z,2.40
2017-11-14T19:45:48.306Z,2.50
2017-11-14T19:48:15.996Z,2.50
2017-11-14T19:50:43.767Z,2.30
2017-11-14T19:53:11.613Z,2.30
2017-11-14T19:55:39.365Z,2.40
2017-11-14T19:58:08.412Z,2.40
2017-11-14T20:00:36.363Z,2.40
2017-11-14T20:03:04.014Z,2.50
2017-11-14T20:05:31.727Z,2.40
2017-11-14T20:07:59.841Z,2.50
2017-11-14T20:10:27.494Z,2.50
2017-11-14T20:15:23.184Z,2.50
2017-11-14T20:17:50.809Z,2.50
2017-11-14T20:23:00.702Z,2.60
2017-11-14T20:25:28.708Z,2.60
2017-11-14T20:27:56.312Z,2.60
2017-11-14T20:30:24.213Z,2.50
2017-11-14T20:32:52.804Z,2.60
2017-11-14T20:35:21.479Z,2.70
2017-11-14T20:37:49.480Z,2.70
2017-11-14T20:40:17.653Z,2.70
2017-11-14T20:42:45.237Z,2.60
2017-11-14T20:45:13.106Z,2.60
2017-11-14T20:47:40.964Z,2.60
2017-11-14T20:50:08.811Z,2.30
2017-11-14T20:52:36.768Z,2.40
2017-11-14T20:55:04.754Z,2.40
2017-11-14T20:57:32.413Z,2.30
2017-11-14T21:00:00.263Z,2.40
2017-11-14T21:02:27.914Z,2.40
2017-11-14T21:04:55.738Z,2.30
2017-11-14T21:07:23.639Z,2.10
2017-11-14T21:09:51.267Z,1.90
2017-11-14T21:12:19.054Z,1.90
2017-11-14T21:14:46.952Z,2.00
2017-11-14T21:17:14.694Z,2.10
2017-11-14T21:19:42.431Z,2.00
2017-11-14T21:22:10.787Z,1.90
2017-11-14T21:24:38.468Z,1.70
2017-11-14T21:27:07.116Z,1.70
2017-11-14T21:29:34.742Z,1.60
2017-11-14T21:32:02.436Z,1.60
2017-11-14T21:34:30.059Z,1.60
2017-11-14T21:36:57.714Z,1.80
2017-11-14T21:39:25.416Z,1.60
2017-11-14T21:47:00.214Z,1.50
2017-11-14T21:49:27.937Z,1.60
2017-11-14T21:51:55.580Z,1.70
2017-11-14T21:56:50.982Z,1.30
2017-11-14T21:59:18.630Z,1.20
2017-11-14T22:01:46.349Z,1.10
2017-11-14T22:04:14.009Z,1.00
2017-11-14T22:06:41.695Z,1.00
2017-11-14T22:09:10.051Z,1.10
2017-11-14T22:11:37.726Z,1.30
2017-11-14T22:14:05.628Z,1.50
2017-11-14T22:16:33.390Z,1.70
2017-11-14T22:19:01.091Z,1.90
2017-11-14T22:24:09.561Z,1.80
2017-11-14T22:26:37.805Z,1.90
2017-11-14T22:29:05.418Z,1.80
2017-11-14T22:31:33.104Z,1.60
2017-11-14T22:34:00.731Z,1.60
2017-11-14T22:36:28.962Z,1.60
2017-11-14T22:38:56.640Z,1.50
2017-11-14T22:41:25.856Z,1.40
2017-11-14T22:43:54.126Z,1.20
2017-11-14T22:46:21.749Z,0.90
2017-11-14T22:48:49.468Z,0.80
2017-11-14T22:51:17.087Z,0.80
2017-11-14T22:53:45.744Z,0.80
2017-11-14T22:56:13.390Z,0.90
2017-11-14T23:01:09.286Z,0.80
2017-11-14T23:03:36.913Z,0.60
2017-11-14T23:06:04.556Z,0.60
2017-11-14T23:08:33.180Z,0.60
2017-11-14T23:11:00.811Z,0.50
2017-11-14T23:13:29.250Z,0.40
2017-11-14T23:15:56.953Z,0.60
2017-11-14T23:18:24.574Z,0.60
2017-11-14T23:20:52.197Z,0.40
2017-11-14T23:23:19.889Z,0.50
2017-11-14T23:25:48.476Z,0.40
2017-11-14T23:28:16.096Z,0.50
2017-11-14T23:30:43.787Z,0.50
2017-11-14T23:33:11.415Z,0.60
2017-11-14T23:35:39.043Z,0.50
2017-11-14T23:38:06.751Z,0.50
2017-11-14T23:40:34.390Z,0.50
2017-11-14T23:43:02.750Z,0.50
2017-11-14T23:48:18.253Z,0.50
2017-11-14T23:50:47.173Z,0.50
2017-11-14T23:53:14.811Z,0.50
2017-11-14T23:55:42.445Z,0.50
2017-11-14T23:58:10.950Z,0.50
